createdAt,value
2019-02-16T00:02:21.940Z,69.60
2019-02-16T00:04:50.921Z,70.50
2019-02-16T00:07:19.473Z,69.40
2019-02-16T00:09:48.069Z,69.40
2019-02-16T00:12:16.637Z,68.90
2019-02-16T00:14:45.158Z,68.90
2019-02-16T00:17:13.707Z,68.30
2019-02-16T00:19:42.285Z,68.10
2019-02-16T00:22:10.764Z,68.10
2019-02-16T00:24:39.347Z,68.50
2019-02-16T00:27:07.909Z,69.50
2019-02-16T00:29:36.461Z,69.50
2019-02-16T00:32:04.971Z,69.80
2019-02-16T00:34:33.517Z,71.00
2019-02-16T00:37:02.021Z,70.10
2019-02-16T00:39:30.574Z,70.50
2019-02-16T00:41:59.157Z,71.60
2019-02-16T00:44:27.637Z,71.10
2019-02-16T00:46:56.233Z,71.50
2019-02-16T00:49:24.787Z,72.10
2019-02-16T00:51:53.366Z,71.80
2019-02-16T00:54:21.852Z,72.20
2019-02-16T00:56:50.425Z,71.70
2019-02-16T00:59:18.985Z,71.00
2019-02-16T01:01:47.502Z,72.00
2019-02-16T01:04:16.061Z,71.70
2019-02-16T01:06:44.721Z,72.40
2019-02-16T01:09:13.324Z,75.20
2019-02-16T01:11:41.978Z,74.30
2019-02-16T01:14:10.461Z,73.10
2019-02-16T01:16:39.042Z,73.50
2019-02-16T01:19:07.594Z,73.30
2019-02-16T01:21:36.235Z,74.10
2019-02-16T01:24:04.754Z,73.70
2019-02-16T01:26:33.341Z,74.10
2019-02-16T01:29:01.926Z,74.70
2019-02-16T01:31:30.466Z,73.80
2019-02-16T01:33:59.047Z,74.60
2019-02-16T01:36:27.655Z,75.20
2019-02-16T01:38:56.262Z,74.30
2019-02-16T01:41:24.866Z,74.60
2019-02-16T01:43:53.446Z,75.20
2019-02-16T01:46:22.054Z,76.10
2019-02-16T01:48:50.596Z,75.60
2019-02-16T01:51:19.173Z,75.70
2019-02-16T01:53:47.799Z,76.30
2019-02-16T01:56:16.508Z,76.00
2019-02-16T01:58:45.078Z,75.00
2019-02-16T02:01:13.742Z,76.40
2019-02-16T02:03:42.351Z,75.30
2019-02-16T02:06:10.998Z,74.50
2019-02-16T02:08:39.605Z,73.40
2019-02-16T02:11:08.247Z,73.50
2019-02-16T02:13:36.872Z,73.20
2019-02-16T02:16:05.457Z,72.90
2019-02-16T02:18:34.059Z,73.30
2019-02-16T02:21:02.634Z,73.60
2019-02-16T02:23:31.242Z,73.40
2019-02-16T02:25:59.818Z,73.90
2019-02-16T02:28:28.494Z,73.80
2019-02-16T02:30:57.071Z,73.40
2019-02-16T02:33:25.676Z,73.20
2019-02-16T02:35:54.255Z,73.50
2019-02-16T02:38:22.860Z,72.70
2019-02-16T02:40:51.444Z,72.70
2019-02-16T02:43:20.095Z,72.40
2019-02-16T02:45:48.630Z,72.90
2019-02-16T02:48:17.246Z,73.50
2019-02-16T02:50:45.822Z,73.10
2019-02-16T02:53:14.448Z,73.70
2019-02-16T02:55:43.083Z,73.90
2019-02-16T02:58:11.678Z,73.40
2019-02-16T03:00:40.254Z,72.90
2019-02-16T03:03:08.866Z,74.10
2019-02-16T03:05:37.451Z,73.80
2019-02-16T03:08:06.128Z,73.90
2019-02-16T03:10:34.699Z,74.40
2019-02-16T03:13:03.310Z,75.80
2019-02-16T03:15:31.890Z,76.50
2019-02-16T03:18:00.495Z,76.80
2019-02-16T03:20:29.078Z,76.50
2019-02-16T03:23:17.501Z,76.20
2019-02-16T03:25:49.143Z,75.80
2019-02-16T03:28:32.726Z,75.60
2019-02-16T03:31:20.581Z,76.00
2019-02-16T03:34:10.548Z,75.60
2019-02-16T03:36:42.218Z,75.70
2019-02-16T03:39:13.666Z,76.10
2019-02-16T03:41:42.238Z,76.70
2019-02-16T03:44:10.840Z,77.50
2019-02-16T03:46:39.486Z,76.40
2019-02-16T03:49:08.091Z,77.00
2019-02-16T03:51:36.675Z,78.40
2019-02-16T03:54:05.283Z,79.80
2019-02-16T03:56:33.861Z,79.10
2019-02-16T03:59:02.546Z,78.10
2019-02-16T04:01:31.154Z,77.60
2019-02-16T04:03:59.759Z,77.60
2019-02-16T04:06:28.362Z,77.00
2019-02-16T04:08:56.948Z,76.70
2019-02-16T04:11:25.594Z,76.80
2019-02-16T04:13:54.241Z,76.70
2019-02-16T04:16:22.831Z,76.90
2019-02-16T04:18:51.410Z,77.10
2019-02-16T04:21:20.022Z,77.10
2019-02-16T04:23:48.579Z,77.10
2019-02-16T04:26:17.301Z,76.80
2019-02-16T04:28:45.930Z,76.90
2019-02-16T04:31:14.509Z,77.30
2019-02-16T04:33:43.088Z,77.40
2019-02-16T04:36:11.670Z,77.00
2019-02-16T04:38:40.149Z,77.60
2019-02-16T04:41:08.666Z,77.60
2019-02-16T04:43:37.215Z,77.60
2019-02-16T04:46:05.797Z,77.80
2019-02-16T04:48:34.277Z,77.80
2019-02-16T04:51:02.867Z,77.50
2019-02-16T04:53:31.413Z,78.90
2019-02-16T04:55:59.923Z,78.60
2019-02-16T04:58:28.476Z,78.50
2019-02-16T05:00:57.065Z,78.00
2019-02-16T05:03:25.626Z,77.90
2019-02-16T05:05:54.185Z,78.10
2019-02-16T05:08:22.841Z,78.70
2019-02-16T05:10:51.319Z,78.00
2019-02-16T05:13:19.905Z,78.20
2019-02-16T05:15:48.465Z,78.20
2019-02-16T05:18:17.054Z,78.70
2019-02-16T05:20:45.619Z,79.10
2019-02-16T05:23:14.274Z,78.40
2019-02-16T05:25:42.827Z,79.20
2019-02-16T05:28:11.434Z,79.60
2019-02-16T05:30:39.988Z,78.90
2019-02-16T05:33:08.574Z,79.70
2019-02-16T05:35:37.129Z,79.60
2019-02-16T05:38:05.706Z,79.70
2019-02-16T05:40:34.261Z,79.40
2019-02-16T05:43:02.778Z,79.50
2019-02-16T05:45:31.326Z,80.50
2019-02-16T05:47:59.911Z,79.80
2019-02-16T05:50:28.522Z,79.60
2019-02-16T05:52:57.100Z,81.00
2019-02-16T05:55:25.721Z,81.10
2019-02-16T05:57:54.305Z,81.70
2019-02-16T06:00:24.423Z,81.00
2019-02-16T06:02:53.009Z,81.90
2019-02-16T06:05:21.498Z,81.60
2019-02-16T06:07:50.093Z,82.30
2019-02-16T06:10:18.650Z,82.40
2019-02-16T06:12:47.235Z,81.50
2019-02-16T06:15:15.866Z,81.80
2019-02-16T06:17:44.566Z,81.80
2019-02-16T06:20:13.121Z,82.90
2019-02-16T06:22:41.714Z,82.80
2019-02-16T06:25:10.271Z,83.90
2019-02-16T06:27:38.846Z,84.00
2019-02-16T06:30:08.746Z,84.10
2019-02-16T06:32:37.330Z,83.50
2019-02-16T06:35:08.493Z,83.70
2019-02-16T06:37:37.098Z,84.30
2019-02-16T06:40:07.387Z,84.50
2019-02-16T06:42:35.982Z,86.00
2019-02-16T06:45:05.674Z,85.80
2019-02-16T06:47:34.254Z,85.60
2019-02-16T06:50:02.816Z,85.70
2019-02-16T06:52:31.448Z,85.40
2019-02-16T06:55:00.236Z,84.60
2019-02-16T06:57:30.047Z,84.30
2019-02-16T06:59:58.666Z,85.90
2019-02-16T07:02:29.091Z,85.20
2019-02-16T07:04:57.825Z,85.80
2019-02-16T07:07:26.380Z,84.90
2019-02-16T07:09:54.970Z,84.60
2019-02-16T07:12:23.548Z,84.80
2019-02-16T07:14:52.199Z,85.10
2019-02-16T07:17:31.464Z,84.90
2019-02-16T07:20:00.049Z,84.80
2019-02-16T07:22:28.667Z,84.70
2019-02-16T07:24:57.268Z,84.10
2019-02-16T07:27:25.826Z,84.30
2019-02-16T07:29:54.410Z,84.90
2019-02-16T07:32:22.974Z,84.70
2019-02-16T07:34:51.558Z,85.00
2019-02-16T07:37:20.122Z,84.70
2019-02-16T07:39:48.710Z,84.90
2019-02-16T07:42:17.201Z,84.80
2019-02-16T07:44:56.410Z,84.80
2019-02-16T07:47:26.538Z,84.20
2019-02-16T07:49:59.498Z,84.60
2019-02-16T07:52:29.695Z,84.40
2019-02-16T07:54:59.853Z,84.30
2019-02-16T07:57:30.048Z,83.50
2019-02-16T08:00:15.290Z,83.20
2019-02-16T08:02:51.282Z,82.60
2019-02-16T08:05:21.498Z,82.40
2019-02-16T08:08:00.195Z,81.70
2019-02-16T08:10:39.098Z,80.20
2019-02-16T08:13:11.748Z,81.30
2019-02-16T08:15:50.792Z,80.20
2019-02-16T08:18:26.774Z,79.90
2019-02-16T08:20:59.611Z,80.10
2019-02-16T08:23:40.309Z,79.20
2019-02-16T08:26:10.215Z,79.50
2019-02-16T08:28:58.517Z,79.10
2019-02-16T08:31:28.748Z,78.00
2019-02-16T08:33:58.956Z,77.60
2019-02-16T08:36:29.150Z,77.40
2019-02-16T08:39:08.239Z,76.80
2019-02-16T08:41:57.064Z,75.80
2019-02-16T08:44:33.282Z,75.90
2019-02-16T08:47:15.406Z,76.30
2019-02-16T08:49:48.490Z,75.30
2019-02-16T08:52:35.018Z,75.90
2019-02-16T08:55:05.286Z,75.30
2019-02-16T08:57:44.319Z,75.30
2019-02-16T09:00:31.086Z,74.90
2019-02-16T09:03:01.250Z,74.30
2019-02-16T09:05:40.186Z,73.90
2019-02-16T09:08:25.760Z,73.80
2019-02-16T09:11:12.039Z,72.90
2019-02-16T09:13:42.285Z,72.00
2019-02-16T09:16:12.474Z,71.70
2019-02-16T09:18:42.626Z,71.20
2019-02-16T09:21:16.067Z,70.20
2019-02-16T09:23:58.875Z,70.50
2019-02-16T09:26:24.134Z,69.40
2019-02-16T09:28:57.295Z,69.10
2019-02-16T09:31:43.928Z,69.20
2019-02-16T09:34:26.236Z,68.80
2019-02-16T09:36:59.170Z,67.20
2019-02-16T09:39:35.474Z,65.30
2019-02-16T09:42:20.741Z,65.10
2019-02-16T09:44:53.575Z,61.90
2019-02-16T09:47:23.774Z,62.50
2019-02-16T09:49:56.669Z,59.80
2019-02-16T09:52:29.718Z,58.60
2019-02-16T09:55:02.414Z,58.20
2019-02-16T09:57:38.370Z,57.10
2019-02-16T10:00:14.107Z,54.40
2019-02-16T10:02:44.235Z,54.00
2019-02-16T10:05:26.874Z,52.10
2019-02-16T10:07:59.498Z,50.70
2019-02-16T10:10:32.621Z,49.50
2019-02-16T10:13:02.759Z,47.40
2019-02-16T10:15:38.996Z,45.10
2019-02-16T10:18:14.990Z,42.60
2019-02-16T10:20:45.250Z,40.90
2019-02-16T10:23:15.457Z,36.70
2019-02-16T10:25:45.658Z,37.90
2019-02-16T10:28:15.826Z,36.50
2019-02-16T10:30:45.962Z,35.30
2019-02-16T10:33:32.518Z,33.40
2019-02-16T10:36:02.718Z,31.60
2019-02-16T10:38:41.914Z,31.20
2019-02-16T10:41:15.107Z,30.10
2019-02-16T10:43:45.338Z,32.30
2019-02-16T10:46:18.530Z,30.20
2019-02-16T10:48:57.538Z,30.10
2019-02-16T10:51:43.001Z,33.70
2019-02-16T10:54:13.568Z,32.70
2019-02-16T10:56:55.766Z,31.80
2019-02-16T10:59:41.230Z,29.20
2019-02-16T11:02:20.910Z,28.70
2019-02-16T11:05:02.818Z,32.70
2019-02-16T11:07:36.049Z,32.60
2019-02-16T11:10:15.670Z,30.50
2019-02-16T11:12:45.831Z,28.80
2019-02-16T11:15:25.194Z,30.40
2019-02-16T11:18:13.318Z,30.10
2019-02-16T11:20:55.154Z,28.20
2019-02-16T11:23:34.030Z,27.00
2019-02-16T11:26:19.265Z,28.80
2019-02-16T11:29:01.462Z,30.20
2019-02-16T11:31:31.658Z,28.60
2019-02-16T11:34:04.799Z,26.20
2019-02-16T11:36:40.914Z,27.10
2019-02-16T11:39:23.090Z,25.80
2019-02-16T11:42:05.352Z,25.20
2019-02-16T11:44:38.519Z,25.10
2019-02-16T11:47:14.803Z,26.10
2019-02-16T11:52:40.822Z,26.10
2019-02-16T11:55:14.246Z,28.20
2019-02-16T11:57:46.958Z,26.20
2019-02-16T12:00:17.164Z,27.10
2019-02-16T12:02:53.387Z,27.20
2019-02-16T12:05:41.716Z,27.00
2019-02-16T12:08:23.589Z,26.30
2019-02-16T12:10:53.786Z,24.40
2019-02-16T12:13:29.797Z,23.40
2019-02-16T12:16:02.428Z,24.10
2019-02-16T12:18:49.150Z,23.90
2019-02-16T12:21:19.355Z,24.10
2019-02-16T12:23:49.510Z,25.50
2019-02-16T12:26:22.254Z,24.60
2019-02-16T12:29:01.427Z,22.80
2019-02-16T12:31:31.636Z,22.80
2019-02-16T12:34:19.464Z,24.30
2019-02-16T12:36:52.302Z,23.60
2019-02-16T12:39:25.776Z,22.10
2019-02-16T12:42:01.987Z,21.70
2019-02-16T12:44:35.123Z,22.10
2019-02-16T12:47:08.113Z,22.20
2019-02-16T12:49:38.347Z,21.80
2019-02-16T12:52:17.357Z,19.80
2019-02-16T12:55:04.183Z,20.10
2019-02-16T12:57:34.386Z,20.60
2019-02-16T13:00:04.697Z,19.90
2019-02-16T13:02:43.523Z,19.80
2019-02-16T13:05:30.336Z,18.50
2019-02-16T13:08:06.827Z,19.40
2019-02-16T13:10:49.072Z,19.60
2019-02-16T13:13:25.009Z,19.80
2019-02-16T13:15:58.250Z,18.50
2019-02-16T13:18:28.382Z,19.00
2019-02-16T13:20:58.642Z,19.40
2019-02-16T13:23:28.856Z,18.90
2019-02-16T13:26:05.048Z,18.60
2019-02-16T13:28:35.176Z,18.10
2019-02-16T13:31:11.144Z,18.70
2019-02-16T13:33:43.747Z,18.40
2019-02-16T13:36:22.710Z,18.30
2019-02-16T13:39:02.036Z,19.80
2019-02-16T13:41:34.933Z,18.60
2019-02-16T13:44:05.314Z,19.00
2019-02-16T13:46:35.511Z,17.90
2019-02-16T13:49:05.742Z,17.70
2019-02-16T13:51:35.951Z,17.80
2019-02-16T13:54:06.251Z,17.90
2019-02-16T13:56:36.458Z,18.70
2019-02-16T13:59:12.430Z,19.90
2019-02-16T14:01:51.578Z,20.10
2019-02-16T14:04:38.175Z,20.10
2019-02-16T14:07:08.382Z,21.90
2019-02-16T14:09:38.619Z,20.50
2019-02-16T14:12:08.820Z,20.10
2019-02-16T14:14:39.059Z,20.40
2019-02-16T14:17:25.536Z,20.20
2019-02-16T14:19:54.131Z,19.90
2019-02-16T14:22:23.466Z,19.90
2019-02-16T14:24:53.671Z,20.00
2019-02-16T14:27:22.263Z,19.00
2019-02-16T14:29:50.818Z,19.70
2019-02-16T14:32:19.336Z,20.80
2019-02-16T14:34:48.006Z,19.70
2019-02-16T14:37:18.245Z,19.20
2019-02-16T14:39:46.803Z,17.80
2019-02-16T14:42:15.404Z,18.50
2019-02-16T14:44:43.954Z,17.50
2019-02-16T14:47:12.466Z,18.70
2019-02-16T14:49:41.034Z,18.40
2019-02-16T14:52:09.650Z,19.80
2019-02-16T14:54:38.151Z,19.70
2019-02-16T14:57:06.787Z,19.00
2019-02-16T14:59:35.378Z,17.90
2019-02-16T15:02:03.858Z,18.50
2019-02-16T15:04:32.438Z,18.80
2019-02-16T15:07:01.003Z,18.10
2019-02-16T15:09:29.579Z,18.20
2019-02-16T15:11:58.142Z,19.10
2019-02-16T15:14:26.731Z,19.50
2019-02-16T15:16:55.412Z,21.30
2019-02-16T15:19:25.707Z,22.10
2019-02-16T15:21:54.142Z,22.80
2019-02-16T15:24:22.730Z,24.00
2019-02-16T15:26:51.306Z,25.10
2019-02-16T15:29:19.811Z,26.30
2019-02-16T15:31:48.382Z,26.90
2019-02-16T15:34:16.898Z,27.10
2019-02-16T15:36:45.462Z,27.90
2019-02-16T15:39:14.043Z,28.90
2019-02-16T15:41:42.606Z,29.10
2019-02-16T15:44:11.190Z,29.20
2019-02-16T15:46:39.782Z,29.30
2019-02-16T15:49:08.339Z,30.00
2019-02-16T15:51:36.950Z,31.00
2019-02-16T15:54:05.506Z,32.00
2019-02-16T15:56:34.171Z,32.90
2019-02-16T15:59:03.962Z,32.50
2019-02-16T16:01:32.552Z,31.50
2019-02-16T16:04:01.202Z,32.00
2019-02-16T16:06:42.076Z,33.60
2019-02-16T16:09:21.801Z,33.40
2019-02-16T16:11:58.279Z,33.60
2019-02-16T16:14:31.399Z,34.60
2019-02-16T16:17:04.690Z,34.70
2019-02-16T16:19:47.152Z,35.80
2019-02-16T16:22:26.622Z,35.70
2019-02-16T16:24:59.551Z,38.70
2019-02-16T16:27:32.658Z,37.90
2019-02-16T16:30:02.884Z,38.20
2019-02-16T16:32:51.303Z,38.30
2019-02-16T16:35:24.314Z,38.60
2019-02-16T16:38:03.538Z,39.50
2019-02-16T16:40:33.744Z,41.20
2019-02-16T16:43:16.146Z,41.30
2019-02-16T16:45:46.373Z,41.00
2019-02-16T16:48:19.605Z,41.00
2019-02-16T16:51:05.798Z,42.80
2019-02-16T16:53:54.046Z,42.60
2019-02-16T16:56:28.933Z,44.10
2019-02-16T16:59:02.224Z,42.90
2019-02-16T17:01:44.112Z,44.20
2019-02-16T17:04:14.354Z,44.10
2019-02-16T17:06:47.311Z,43.20
2019-02-16T17:09:21.872Z,44.80
2019-02-16T17:11:55.055Z,45.20
2019-02-16T17:14:25.294Z,46.50
2019-02-16T17:17:12.060Z,48.00
2019-02-16T17:19:51.478Z,48.90
2019-02-16T17:22:27.612Z,48.50
2019-02-16T17:24:57.918Z,46.40
2019-02-16T17:27:28.122Z,47.20
2019-02-16T17:30:01.430Z,47.50
2019-02-16T17:32:48.050Z,47.50
2019-02-16T17:35:36.124Z,47.60
2019-02-16T17:38:08.873Z,48.20
2019-02-16T17:40:42.076Z,49.70
2019-02-16T17:43:12.397Z,48.80
2019-02-16T17:45:45.018Z,49.80
2019-02-16T17:48:33.318Z,49.90
2019-02-16T17:51:03.560Z,49.30
2019-02-16T17:53:36.801Z,51.00
2019-02-16T17:56:07.006Z,51.10
2019-02-16T17:58:46.403Z,51.30
2019-02-16T18:01:22.698Z,52.40
2019-02-16T18:03:52.943Z,52.40
2019-02-16T18:06:26.130Z,52.10
2019-02-16T18:08:56.387Z,52.10
2019-02-16T18:11:32.396Z,51.70
2019-02-16T18:14:02.695Z,51.10
2019-02-16T18:16:38.841Z,50.70
2019-02-16T18:19:09.079Z,50.00
2019-02-16T18:21:39.284Z,50.50
2019-02-16T18:24:09.519Z,52.10
2019-02-16T18:26:57.825Z,52.50
2019-02-16T18:29:44.329Z,52.30
2019-02-16T18:32:14.539Z,52.20
2019-02-16T18:34:44.799Z,51.90
2019-02-16T18:37:23.839Z,52.30
2019-02-16T18:40:10.447Z,52.50
2019-02-16T18:42:57.200Z,52.80
2019-02-16T18:45:29.007Z,51.90
2019-02-16T18:48:01.937Z,53.00
2019-02-16T18:50:32.180Z,53.00
2019-02-16T18:53:08.392Z,53.50
2019-02-16T18:55:38.656Z,53.10
2019-02-16T18:58:24.994Z,53.00
2019-02-16T19:00:55.235Z,52.90
2019-02-16T19:03:25.456Z,53.90
2019-02-16T19:05:55.683Z,54.30
2019-02-16T19:08:25.983Z,53.40
2019-02-16T19:10:58.941Z,54.30
2019-02-16T19:13:32.123Z,53.70
2019-02-16T19:16:05.126Z,53.70
2019-02-16T19:18:47.551Z,54.00
2019-02-16T19:21:20.219Z,54.70
2019-02-16T19:23:50.478Z,55.40
2019-02-16T19:26:20.736Z,55.00
2019-02-16T19:28:53.915Z,54.20
2019-02-16T19:31:30.170Z,54.30
2019-02-16T19:34:16.424Z,55.30
2019-02-16T19:36:46.676Z,56.10
2019-02-16T19:39:31.975Z,56.40
2019-02-16T19:42:05.129Z,57.40
2019-02-16T19:44:47.361Z,57.00
2019-02-16T19:47:35.525Z,56.80
2019-02-16T19:50:06.779Z,57.10
2019-02-16T19:52:46.016Z,57.70
2019-02-16T19:55:19.233Z,56.70
2019-02-16T19:57:58.480Z,57.00
2019-02-16T20:00:31.421Z,57.50
2019-02-16T20:03:19.855Z,56.50
2019-02-16T20:06:05.301Z,56.40
2019-02-16T20:08:35.567Z,57.80
2019-02-16T20:11:18.217Z,57.80
2019-02-16T20:14:03.795Z,57.60
2019-02-16T20:16:36.884Z,58.30
2019-02-16T20:19:12.607Z,58.50
2019-02-16T20:21:59.339Z,58.70
2019-02-16T20:24:32.258Z,58.10
2019-02-16T20:27:18.937Z,58.20
2019-02-16T20:30:05.781Z,58.50
2019-02-16T20:32:35.998Z,58.60
2019-02-16T20:35:06.679Z,58.10
2019-02-16T20:37:42.885Z,58.30
2019-02-16T20:40:13.131Z,58.10
2019-02-16T20:42:43.349Z,57.90
2019-02-16T20:45:22.432Z,58.30
2019-02-16T20:47:52.650Z,60.00
2019-02-16T20:50:29.039Z,60.10
2019-02-16T20:53:11.523Z,60.40
2019-02-16T20:55:41.766Z,59.70
2019-02-16T20:58:11.971Z,59.40
2019-02-16T21:00:42.207Z,59.50
2019-02-16T21:03:12.423Z,59.90
2019-02-16T21:05:54.754Z,62.10
2019-02-16T21:08:27.662Z,61.00
2019-02-16T21:10:57.907Z,61.40
2019-02-16T21:13:28.116Z,62.80
2019-02-16T21:15:58.348Z,62.30
2019-02-16T21:18:31.250Z,62.60
2019-02-16T21:21:10.543Z,61.70
2019-02-16T21:23:43.531Z,61.10
2019-02-16T21:26:19.927Z,62.60
2019-02-16T21:28:50.145Z,62.30
2019-02-16T21:31:23.191Z,62.10
2019-02-16T21:33:53.423Z,62.50
2019-02-16T21:36:26.666Z,62.50
2019-02-16T21:39:03.064Z,63.10
2019-02-16T21:41:44.939Z,63.60
2019-02-16T21:44:15.141Z,63.20
2019-02-16T21:46:57.591Z,62.70
2019-02-16T21:49:36.665Z,62.70
2019-02-16T21:52:09.635Z,63.00
2019-02-16T21:54:39.847Z,63.00
2019-02-16T21:57:26.745Z,64.10
2019-02-16T21:59:56.957Z,64.80
2019-02-16T22:02:27.242Z,63.40
2019-02-16T22:04:57.433Z,66.80
2019-02-16T22:07:27.683Z,69.10
2019-02-16T22:10:00.333Z,67.80
2019-02-16T22:12:33.467Z,66.10
2019-02-16T22:15:02.602Z,65.40
2019-02-16T22:17:31.282Z,65.20
2019-02-16T22:19:59.871Z,65.90
2019-02-16T22:22:28.438Z,67.20
2019-02-16T22:24:57.027Z,67.00
2019-02-16T22:27:25.617Z,67.20
2019-02-16T22:29:54.222Z,66.20
2019-02-16T22:32:22.777Z,65.30
2019-02-16T22:34:51.383Z,65.50
2019-02-16T22:37:19.943Z,65.80
2019-02-16T22:39:48.545Z,65.80
2019-02-16T22:42:17.121Z,67.50
2019-02-16T22:44:45.718Z,68.10
2019-02-16T22:47:14.274Z,67.90
2019-02-16T22:49:42.889Z,67.50
2019-02-16T22:52:11.443Z,68.10
2019-02-16T22:54:40.028Z,67.80
2019-02-16T22:57:08.591Z,69.00
2019-02-16T22:59:37.188Z,68.80
2019-02-16T23:02:05.993Z,68.50
2019-02-16T23:04:34.589Z,68.40
2019-02-16T23:07:03.155Z,69.80
2019-02-16T23:09:31.777Z,69.70
2019-02-16T23:12:00.318Z,69.90
2019-02-16T23:14:28.953Z,69.50
2019-02-16T23:16:57.581Z,71.80
2019-02-16T23:19:26.220Z,70.60
2019-02-16T23:21:54.815Z,71.80
2019-02-16T23:24:23.311Z,71.90
2019-02-16T23:26:51.947Z,72.70
2019-02-16T23:29:20.587Z,71.50
2019-02-16T23:31:49.244Z,71.00
2019-02-16T23:34:17.807Z,72.20
2019-02-16T23:36:46.411Z,73.20
2019-02-16T23:39:15.648Z,73.00
2019-02-16T23:41:44.232Z,75.40
2019-02-16T23:44:12.875Z,74.60
2019-02-16T23:46:41.457Z,73.60
2019-02-16T23:49:10.129Z,73.00
2019-02-16T23:51:38.768Z,72.40
2019-02-16T23:54:07.383Z,73.90
2019-02-16T23:56:35.947Z,73.80
2019-02-16T23:59:04.487Z,73.50
